Taylor Fork

This weather station provides wind speed, gust or max wind speed, and wind direction at 9460 ft. near Pika Point above Sunlight Basin.  

This data can be used with temperature and precipitation data from the Carrot Basin SNOTEL site. If the data below is not displayed or up to date, view data here.

This weather station was purchased by the Friends of the Avalanche Center.

Elevation
9460ft
Jump to table bottom
Date Time Temperature
deg F
RH, % Wind Speed Wind Gust Wind Direction
12/09/19 09:00 8.1 86 4 7 E - 93
12/09/19 08:00 6.2 90 4 8 NE - 62
12/09/19 07:00 8.0 81 4 9 SE - 142
12/09/19 06:00 8.1 78 3 8 SE - 140
12/09/19 05:00 8.6 81 5 8 E - 95
12/09/19 04:00 9.2 79 3 5 W - 284
12/09/19 03:00 9.3 83 5 12 W - 292
12/09/19 02:00 9.5 84 10 20 NW - 337
12/09/19 01:00 11.2 81 10 22 NW - 330
12/09/19 00:00 10.7 88 5 13 N - 341
12/08/19 23:00 11.4 88 5 15 N - 344
12/08/19 22:00 13.0 89 12 21 NW - 330
12/08/19 21:00 13.0 92 5 14 N - 358
12/08/19 20:00 13.3 92 12 27 NW - 333
12/08/19 19:00 14.5 93 20 37 NW - 329
12/08/19 18:00 16.0 93 24 42 NW - 329
12/08/19 17:00 17.1 94 14 36 NW - 319
12/08/19 16:00 19.5 94 14 32 NW - 310
12/08/19 15:00 20.3 95 20 37 NW - 295
12/08/19 14:00 20.4 95 18 36 W - 288
12/08/19 13:00 21.1 95 10 31 NW - 309
12/08/19 12:00 23.1 96 7 21 NW - 305
12/08/19 11:00 22.6 96 11 23 W - 263
12/08/19 10:00 23.5 96 10 17 W - 251
12/08/19 09:00 22.7 96 10 19 SW - 237
12/08/19 08:00 23.1 96 9 20 SW - 234
12/08/19 07:00 23.1 96 9 17 SW - 222
12/08/19 06:00 23.4 96 9 17 SW - 222
12/08/19 05:00 23.7 96 12 21 SW - 216
12/08/19 04:00 23.6 96 11 19 SW - 215
12/08/19 03:00 23.4 96 14 27 SW - 219
12/08/19 02:00 23.3 96 14 29 SW - 226
12/08/19 01:00 23.0 96 11 20 SW - 222
12/08/19 00:00 22.7 96 16 27 SW - 237
12/07/19 23:00 22.6 96 16 28 SW - 236
12/07/19 22:00 22.5 96 13 24 SW - 223
12/07/19 21:00 22.2 96 12 22 SW - 213
12/07/19 20:00 21.9 95 12 21 SW - 216
12/07/19 19:00 22.1 96 18 29 SW - 233
12/07/19 18:00 21.9 95 15 28 SW - 239
12/07/19 17:00 21.7 95 15 24 SW - 223
12/07/19 16:00 21.6 95 15 25 SW - 218
12/07/19 15:00 21.6 95 15 32 SW - 225
12/07/19 14:00 21.5 95 16 27 SW - 213
12/07/19 13:00 21.9 95 15 31 SW - 204
12/07/19 12:00 21.6 95 17 30 S - 188
12/07/19 11:00 21.7 95 16 25 S - 192
12/07/19 10:00 21.8 95 16 26 SW - 204
12/07/19 09:00 21.6 95 17 33 S - 197
12/07/19 08:00 21.5 95 15 29 S - 202